Historique des mesures à Cassis (13260), France
Quotidien Résumé Mars 13, 2017 Unités:  Métrique    US   Métrique/US
« Précédent (Jour)
Suivant (Jour) »
Quotidien Hebdomadaire Mensuel Annuel Période au choix
  Maximum: Minimum: Moyenne:
Température: TemperatureC °C 10.9 °C 13.4 °C
Point de rosée: DewpointC °C 5.4 °C 7.1 °C
Humidité: Humidity % 55 % 63 %
Vitesse du vent: 0 km/h 0 km/h 3.1 km/h
Rafales: 0 km/h - -
Vent:- - SE
Pression: PressurehPa hPa 1011.1 hPa -
Précipitations: 0.0 mm    
Historical Graphs
 
 
Mesures pour : Mars 13, 2017
Heure Temperature Point de rosée Pression Vent Vitesse du vent Rafales Humidité Pluie (par heure) Conditions
TemperatureC °C DewpointC °C PressurehPa hPa Calm     Humidity % HourlyPrecipMM mm SoftwareType W/m2
00:11 11.5 °C 7.8 °C 1011.1 hPa Calm     78 % 0.0 mm open2300-1.11 W/m2
01:10 11.5 °C 8.2 °C 1011.4 hPa North 5.1 km/h 5.1 km/h 80 % 0.0 mm open2300-1.11 W/m2
02:11 11.9 °C 8.4 °C 1011.4 hPa NNW 4.7 km/h 6.9 km/h 79 % 0.0 mm open2300-1.11 W/m2
03:10 11.6 °C 7.9 °C 1011.7 hPa NNE 3.4 km/h 3.4 km/h 78 % 0.0 mm open2300-1.11 W/m2
04:11 11.5 °C 7.6 °C 1012.1 hPa Calm     77 % 0.0 mm open2300-1.11 W/m2
05:10 11.3 °C 6.8 °C 1012.4 hPa NNE 2.3 km/h 2.3 km/h 74 % 0.0 mm open2300-1.11 W/m2
06:11 11.5 °C 5.6 °C 1013.1 hPa Calm     67 % 0.0 mm open2300-1.11 W/m2
07:10 10.9 °C 5.4 °C 1014.1 hPa Calm   4.2 km/h 69 % 0.0 mm open2300-1.11 W/m2
08:11 12.4 °C 6.0 °C 1014.8 hPa Calm   2.9 km/h 65 % 0.0 mm open2300-1.11 W/m2
09:10 13.9 °C 6.3 °C 1015.5 hPa Calm     60 % 0.0 mm open2300-1.11 W/m2
10:11 14.9 °C 6.7 °C 1016.5 hPa Calm   12.7 km/h 58 % 0.0 mm open2300-1.11 W/m2
11:10 16.3 °C 7.5 °C 1017.5 hPa Calm   6.4 km/h 56 % 0.0 mm open2300-1.11 W/m2
12:11 17.2 °C 8.3 °C 1017.8 hPa South 7.6 km/h 9.8 km/h 56 % 0.0 mm open2300-1.11 W/m2
13:10 17.6 °C 8.7 °C 1018.5 hPa SSW 5.6 km/h 5.6 km/h 56 % 0.0 mm open2300-1.11 W/m2
14:11 17.4 °C 8.2 °C 1018.5 hPa South 7.6 km/h 9.8 km/h 55 % 0.0 mm open2300-1.11 W/m2
15:10 17.5 °C 8.3 °C 1018.8 hPa SE 8.9 km/h 8.9 km/h 55 % 0.0 mm open2300-1.11 W/m2
16:11 17.4 °C 8.8 °C 1019.2 hPa SSE 8 km/h 8 km/h 57 % 0.0 mm open2300-1.11 W/m2
17:10 16.9 °C 8.6 °C 1019.5 hPa Calm   12.2 km/h 58 % 0.0 mm open2300-1.11 W/m2
18:11 15.9 °C 7.9 °C 1020.5 hPa SE 2.9 km/h 2.9 km/h 59 % 0.0 mm open2300-1.11 W/m2
19:10 14.4 °C 7.2 °C 1021.2 hPa NW 11.6 km/h 11.6 km/h 62 % 0.0 mm open2300-1.11 W/m2
20:11 13.4 °C 6.9 °C 1021.9 hPa North 2.3 km/h 2.3 km/h 65 % 0.0 mm open2300-1.11 W/m2
21:10 12.8 °C 6.6 °C 1022.2 hPa Calm     66 % 0.0 mm open2300-1.11 W/m2
22:11 12.4 °C 6.4 °C 1022.9 hPa North 4.7 km/h 4.7 km/h 67 % 0.0 mm open2300-1.11 W/m2
23:10 11.9 °C 6.2 °C 1023.2 hPa Calm   2.3 km/h 68 % 0.0 mm open2300-1.11 W/m2
Observations météo à CASSIS
WU-History script by Weather Underground - 1 mb